createdAt,value
2023-05-25T00:01:55.988Z,12.80
2023-05-25T00:04:27.099Z,13.40
2023-05-25T00:06:54.430Z,12.90
2023-05-25T00:09:21.632Z,12.50
2023-05-25T00:11:48.852Z,13.10
2023-05-25T00:14:16.065Z,12.90
2023-05-25T00:16:45.544Z,13.10
2023-05-25T00:19:13.026Z,13.50
2023-05-25T00:21:40.382Z,13.00
2023-05-25T00:24:08.319Z,12.90
2023-05-25T00:26:36.209Z,13.10
2023-05-25T00:29:04.386Z,13.20
2023-05-25T00:31:36.562Z,12.60
2023-05-25T00:34:03.835Z,12.80
2023-05-25T00:36:31.065Z,12.90
2023-05-25T00:38:58.383Z,13.50
2023-05-25T00:41:27.133Z,13.80
2023-05-25T00:43:54.364Z,13.40
2023-05-25T00:46:22.354Z,13.20
2023-05-25T00:48:51.255Z,13.20
2023-05-25T00:51:18.530Z,13.80
2023-05-25T00:53:45.785Z,13.80
2023-05-25T00:56:23.202Z,13.70
2023-05-25T00:58:54.096Z,13.50
2023-05-25T01:01:22.881Z,13.60
2023-05-25T01:03:53.881Z,13.80
2023-05-25T01:06:22.749Z,13.90
2023-05-25T01:09:00.438Z,14.10
2023-05-25T01:11:32.201Z,13.50
2023-05-25T01:14:00.153Z,13.80
2023-05-25T01:16:27.493Z,13.50
2023-05-25T01:18:54.902Z,13.60
2023-05-25T01:21:37.899Z,14.00
2023-05-25T01:24:14.005Z,13.60
2023-05-25T01:26:47.131Z,13.70
2023-05-25T01:29:16.042Z,14.00
2023-05-25T01:31:43.474Z,13.70
2023-05-25T01:34:11.442Z,13.70
2023-05-25T01:37:07.378Z,13.60
2023-05-25T01:39:59.228Z,13.90
2023-05-25T01:42:59.231Z,14.00
2023-05-25T01:45:26.946Z,14.00
2023-05-25T01:48:12.957Z,13.20
2023-05-25T01:51:13.570Z,12.90
2023-05-25T01:53:57.344Z,13.30
2023-05-25T01:56:26.746Z,13.50
2023-05-25T01:58:55.163Z,13.70
2023-05-25T02:01:23.551Z,13.70
2023-05-25T02:03:51.170Z,13.40
2023-05-25T02:06:18.463Z,13.30
2023-05-25T02:08:45.907Z,14.00
2023-05-25T02:11:16.924Z,13.80
2023-05-25T02:13:44.181Z,14.00
2023-05-25T02:16:11.399Z,13.40
2023-05-25T02:18:38.634Z,13.10
2023-05-25T02:21:05.994Z,13.20
2023-05-25T02:23:33.235Z,13.50
2023-05-25T02:26:00.527Z,13.50
2023-05-25T02:28:27.772Z,13.60
2023-05-25T02:30:55.122Z,13.40
2023-05-25T02:33:22.340Z,13.30
2023-05-25T02:35:50.314Z,13.50
2023-05-25T02:38:17.523Z,13.50
2023-05-25T02:40:46.232Z,13.30
2023-05-25T02:43:13.623Z,13.40
2023-05-25T02:45:40.922Z,13.60
2023-05-25T02:48:08.236Z,13.30
2023-05-25T02:50:35.528Z,13.40
2023-05-25T02:53:04.030Z,13.90
2023-05-25T02:55:31.279Z,13.20
2023-05-25T02:57:59.962Z,13.20
2023-05-25T03:00:27.283Z,13.60
2023-05-25T03:02:54.540Z,13.40
2023-05-25T03:05:21.765Z,13.30
2023-05-25T03:07:49.204Z,13.90
2023-05-25T03:10:16.426Z,14.10
2023-05-25T03:12:43.648Z,13.80
2023-05-25T03:15:13.190Z,13.90
2023-05-25T03:17:40.548Z,13.70
2023-05-25T03:20:10.392Z,13.60
2023-05-25T03:22:37.715Z,13.90
2023-05-25T03:25:05.408Z,13.70
2023-05-25T03:27:32.641Z,13.70
2023-05-25T03:29:59.827Z,13.70
2023-05-25T03:32:27.126Z,13.60
2023-05-25T03:34:54.391Z,13.50
2023-05-25T03:37:21.602Z,13.80
2023-05-25T03:39:48.842Z,13.60
2023-05-25T03:42:16.032Z,13.90
2023-05-25T03:44:43.250Z,14.40
2023-05-25T03:47:11.372Z,13.50
2023-05-25T03:49:38.618Z,13.10
2023-05-25T03:52:06.267Z,12.90
2023-05-25T03:54:34.095Z,13.30
2023-05-25T03:57:03.474Z,13.10
2023-05-25T03:59:30.962Z,13.20
2023-05-25T04:01:58.170Z,13.50
2023-05-25T04:04:25.868Z,13.00
2023-05-25T04:06:53.115Z,13.50
2023-05-25T04:09:20.772Z,13.50
2023-05-25T04:11:47.985Z,12.90
2023-05-25T04:14:15.194Z,12.70
2023-05-25T04:16:42.505Z,12.90
2023-05-25T04:19:09.798Z,12.70
2023-05-25T04:21:37.007Z,13.10
2023-05-25T04:24:04.407Z,12.80
2023-05-25T04:26:31.957Z,12.80
2023-05-25T04:29:01.803Z,12.80
2023-05-25T04:31:29.311Z,12.70
2023-05-25T04:33:56.673Z,12.60
2023-05-25T04:36:24.624Z,12.70
2023-05-25T04:38:54.853Z,12.50
2023-05-25T04:41:22.156Z,12.40
2023-05-25T04:44:05.970Z,12.40
2023-05-25T04:46:38.959Z,12.30
2023-05-25T04:49:08.176Z,12.40
2023-05-25T04:51:36.054Z,12.70
2023-05-25T04:54:03.362Z,12.50
2023-05-25T04:56:31.074Z,12.70
2023-05-25T04:58:58.317Z,12.70
2023-05-25T05:01:26.393Z,12.90
2023-05-25T05:03:53.739Z,12.90
2023-05-25T05:06:21.682Z,13.00
2023-05-25T05:08:48.935Z,12.90
2023-05-25T05:11:16.122Z,12.90
2023-05-25T05:13:43.336Z,12.70
2023-05-25T05:16:10.626Z,12.70
2023-05-25T05:18:37.904Z,12.70
2023-05-25T05:21:05.203Z,12.90
2023-05-25T05:23:34.553Z,13.30
2023-05-25T05:26:01.825Z,13.10
2023-05-25T05:28:29.847Z,12.90
2023-05-25T05:30:57.614Z,12.70
2023-05-25T05:33:24.937Z,13.20
2023-05-25T05:35:52.486Z,12.90
2023-05-25T05:38:20.178Z,13.00
2023-05-25T05:40:47.531Z,13.30
2023-05-25T05:43:15.072Z,13.60
2023-05-25T05:45:42.448Z,13.60
2023-05-25T05:48:09.953Z,13.60
2023-05-25T05:50:42.295Z,13.60
2023-05-25T05:53:10.083Z,13.70
2023-05-25T05:55:37.465Z,14.00
2023-05-25T05:58:04.774Z,13.80
2023-05-25T06:00:32.050Z,13.60
2023-05-25T06:03:00.818Z,13.90
2023-05-25T06:05:28.417Z,14.00
2023-05-25T06:07:55.608Z,13.80
2023-05-25T06:10:22.880Z,13.80
2023-05-25T06:12:50.104Z,13.40
2023-05-25T06:15:17.481Z,13.80
2023-05-25T06:17:46.217Z,14.10
2023-05-25T06:20:15.001Z,14.10
2023-05-25T06:22:42.429Z,14.20
2023-05-25T06:25:10.429Z,14.10
2023-05-25T06:27:37.851Z,13.90
2023-05-25T06:30:05.777Z,13.90
2023-05-25T06:32:33.098Z,14.00
2023-05-25T06:35:00.391Z,14.10
2023-05-25T06:37:35.052Z,14.30
2023-05-25T06:40:02.560Z,14.40
2023-05-25T06:42:29.764Z,14.90
2023-05-25T06:44:56.961Z,14.60
2023-05-25T06:47:24.171Z,14.70
2023-05-25T06:49:51.464Z,15.10
2023-05-25T06:52:18.698Z,15.60
2023-05-25T06:54:45.937Z,15.30
2023-05-25T06:57:13.164Z,15.10
2023-05-25T06:59:40.449Z,15.30
2023-05-25T07:02:07.694Z,15.70
2023-05-25T07:04:34.942Z,15.30
2023-05-25T07:07:02.238Z,15.30
2023-05-25T07:09:29.449Z,15.20
2023-05-25T07:11:56.676Z,15.50
2023-05-25T07:14:23.925Z,15.90
2023-05-25T07:16:51.195Z,15.70
2023-05-25T07:19:18.444Z,15.90
2023-05-25T07:21:45.787Z,16.00
2023-05-25T07:24:13.046Z,16.10
2023-05-25T07:26:40.498Z,16.40
2023-05-25T07:29:07.728Z,16.10
2023-05-25T07:31:35.031Z,16.10
2023-05-25T07:34:02.394Z,16.50
2023-05-25T07:36:29.604Z,16.70
2023-05-25T07:38:57.633Z,16.70
2023-05-25T07:41:24.934Z,17.10
2023-05-25T07:43:52.335Z,16.80
2023-05-25T07:46:24.900Z,17.10
2023-05-25T07:48:54.409Z,17.20
2023-05-25T07:51:23.394Z,17.20
2023-05-25T07:53:52.361Z,17.90
2023-05-25T07:56:19.844Z,17.60
2023-05-25T07:58:47.031Z,17.60
2023-05-25T08:01:14.605Z,18.40
2023-05-25T08:06:15.172Z,18.80
2023-05-25T08:08:44.853Z,18.50
2023-05-25T08:11:12.456Z,18.60
2023-05-25T08:13:39.779Z,19.00
2023-05-25T08:16:07.062Z,19.00
2023-05-25T08:18:34.344Z,18.90
2023-05-25T08:21:01.621Z,17.50
2023-05-25T08:23:28.860Z,18.20
2023-05-25T08:25:56.083Z,18.40
2023-05-25T08:28:23.510Z,17.90
2023-05-25T08:30:50.841Z,18.00
2023-05-25T08:33:18.088Z,17.60
2023-05-25T08:35:45.706Z,17.30
2023-05-25T08:38:13.106Z,17.50
2023-05-25T08:40:43.326Z,18.00
2023-05-25T08:43:10.582Z,18.30
2023-05-25T08:45:41.757Z,18.60
2023-05-25T08:48:27.037Z,18.50
2023-05-25T08:51:10.873Z,17.60
2023-05-25T08:53:39.834Z,18.00
2023-05-25T08:56:18.458Z,17.60
2023-05-25T08:58:57.934Z,18.30
2023-05-25T09:01:27.780Z,17.80
2023-05-25T09:03:56.912Z,18.20
2023-05-25T09:06:27.006Z,17.80
2023-05-25T09:09:15.054Z,18.30
2023-05-25T09:11:53.856Z,18.80
2023-05-25T09:14:25.764Z,18.90
2023-05-25T09:17:28.307Z,18.40
2023-05-25T09:23:26.996Z,18.80
2023-05-25T09:25:54.768Z,18.90
2023-05-25T09:32:24.254Z,20.10
2023-05-25T09:35:23.290Z,19.70
2023-05-25T09:38:22.997Z,20.00
2023-05-25T09:41:21.887Z,19.70
2023-05-25T09:44:21.927Z,20.00
2023-05-25T09:47:00.616Z,20.10
2023-05-25T09:50:21.271Z,19.40
2023-05-25T09:53:22.780Z,19.20
2023-05-25T09:55:54.111Z,19.60
2023-05-25T09:58:27.381Z,19.60
2023-05-25T10:00:55.607Z,19.30
2023-05-25T10:03:23.481Z,19.80
2023-05-25T10:05:51.805Z,19.90
2023-05-25T10:08:21.729Z,19.80
2023-05-25T10:10:52.524Z,20.10
2023-05-25T10:13:23.324Z,20.60
2023-05-25T10:15:53.757Z,20.60
2023-05-25T10:18:26.516Z,20.50
2023-05-25T10:21:02.415Z,20.40
2023-05-25T10:23:44.773Z,20.00
2023-05-25T10:26:16.479Z,19.40
2023-05-25T10:28:45.447Z,20.00
2023-05-25T10:31:13.679Z,20.50
2023-05-25T10:33:41.297Z,20.00
2023-05-25T10:36:11.471Z,20.50
2023-05-25T10:38:41.866Z,19.60
2023-05-25T10:41:11.203Z,20.00
2023-05-25T10:43:39.869Z,20.40
2023-05-25T10:46:07.644Z,20.10
2023-05-25T10:48:51.896Z,20.60
2023-05-25T10:51:23.255Z,20.60
2023-05-25T10:54:00.278Z,20.90
2023-05-25T10:56:27.489Z,21.10
2023-05-25T10:58:54.870Z,21.20
2023-05-25T11:01:22.283Z,21.30
2023-05-25T11:03:54.018Z,21.40
2023-05-25T11:06:38.793Z,21.60
2023-05-25T11:09:07.037Z,21.20
2023-05-25T11:11:43.504Z,21.10
2023-05-25T11:14:26.868Z,21.00
2023-05-25T11:17:16.499Z,21.20
2023-05-25T11:19:47.933Z,21.00
2023-05-25T11:22:21.595Z,20.50
2023-05-25T11:24:49.967Z,20.30
2023-05-25T11:27:23.711Z,21.10
2023-05-25T11:29:51.985Z,20.50
2023-05-25T11:32:19.283Z,20.50
2023-05-25T11:34:48.461Z,20.60
2023-05-25T11:37:24.725Z,20.60
2023-05-25T11:39:52.707Z,21.40
2023-05-25T11:42:21.747Z,21.20
2023-05-25T11:44:49.219Z,21.10
2023-05-25T11:47:22.715Z,20.90
2023-05-25T11:49:50.569Z,20.90
2023-05-25T11:52:19.844Z,21.60
2023-05-25T11:54:47.527Z,21.50
2023-05-25T11:57:20.782Z,21.40
2023-05-25T12:00:00.289Z,21.70
2023-05-25T12:02:27.711Z,22.00
2023-05-25T12:04:55.809Z,21.80
2023-05-25T12:07:23.383Z,22.10
2023-05-25T12:09:50.641Z,21.50
2023-05-25T12:12:18.109Z,22.10
2023-05-25T12:14:51.514Z,21.80
2023-05-25T12:17:19.984Z,21.90
2023-05-25T12:19:47.507Z,22.10
2023-05-25T12:22:14.939Z,22.10
2023-05-25T12:24:42.160Z,22.20
2023-05-25T12:27:20.119Z,22.30
2023-05-25T12:29:50.243Z,22.70
2023-05-25T12:32:17.514Z,23.30
2023-05-25T12:34:44.718Z,22.90
2023-05-25T12:37:22.355Z,23.20
2023-05-25T12:39:50.687Z,23.10
2023-05-25T12:42:18.169Z,23.50
2023-05-25T12:44:46.672Z,23.50
2023-05-25T12:47:25.390Z,23.30
2023-05-25T12:50:12.095Z,23.20
2023-05-25T12:52:44.076Z,23.20
2023-05-25T12:55:29.057Z,23.60
2023-05-25T12:58:03.295Z,23.70
2023-05-25T13:00:38.931Z,23.80
2023-05-25T13:03:09.909Z,24.00
2023-05-25T13:05:38.015Z,24.10
2023-05-25T13:08:06.063Z,24.20
2023-05-25T13:10:33.730Z,24.30
2023-05-25T13:13:01.232Z,24.40
2023-05-25T13:15:28.795Z,23.70
2023-05-25T13:17:58.514Z,23.80
2023-05-25T13:20:27.233Z,23.50
2023-05-25T13:22:58.006Z,23.90
2023-05-25T13:25:27.921Z,23.40
2023-05-25T13:27:57.797Z,23.80
2023-05-25T13:30:25.517Z,23.90
2023-05-25T13:32:53.280Z,24.40
2023-05-25T13:35:37.267Z,24.20
2023-05-25T13:38:04.980Z,23.30
2023-05-25T13:40:32.389Z,23.20
2023-05-25T13:42:59.586Z,23.60
2023-05-25T13:45:26.794Z,23.30
2023-05-25T13:47:54.120Z,23.60
2023-05-25T13:50:21.637Z,23.60
2023-05-25T13:52:49.179Z,23.10
2023-05-25T13:55:16.426Z,23.60
2023-05-25T13:57:43.710Z,23.50
2023-05-25T14:00:11.360Z,23.50
2023-05-25T14:02:38.734Z,23.40
2023-05-25T14:05:06.347Z,23.90
2023-05-25T14:07:33.904Z,23.90
2023-05-25T14:10:01.123Z,23.40
2023-05-25T14:12:28.537Z,23.60
2023-05-25T14:14:55.734Z,23.60
2023-05-25T14:17:23.799Z,23.90
2023-05-25T14:19:51.325Z,23.50
2023-05-25T14:22:19.113Z,23.30
2023-05-25T14:24:46.369Z,23.90
2023-05-25T14:27:13.761Z,23.80
2023-05-25T14:29:41.150Z,23.80
2023-05-25T14:32:08.426Z,24.10
2023-05-25T14:34:35.620Z,24.30
2023-05-25T14:37:02.829Z,23.90
2023-05-25T14:39:30.130Z,23.90
2023-05-25T14:41:57.361Z,23.40
2023-05-25T14:44:24.575Z,23.70
2023-05-25T14:46:51.913Z,23.70
2023-05-25T14:49:19.595Z,24.00
2023-05-25T14:51:46.850Z,24.20
2023-05-25T14:54:14.020Z,24.80
2023-05-25T14:56:41.240Z,25.00
2023-05-25T14:59:08.559Z,24.20
2023-05-25T15:01:36.093Z,24.90
2023-05-25T15:04:03.581Z,25.00
2023-05-25T15:06:32.326Z,26.10
2023-05-25T15:08:59.631Z,26.50
2023-05-25T15:11:26.947Z,27.10
2023-05-25T15:13:54.151Z,26.80
2023-05-25T15:16:21.635Z,25.60
2023-05-25T15:18:48.935Z,26.70
2023-05-25T15:21:16.323Z,25.70
2023-05-25T15:23:43.598Z,26.20
2023-05-25T15:26:11.692Z,26.30
2023-05-25T15:28:39.029Z,25.30
2023-05-25T15:31:06.248Z,26.00
2023-05-25T15:33:48.578Z,27.00
2023-05-25T15:36:21.107Z,25.80
2023-05-25T15:38:49.598Z,26.40
2023-05-25T15:41:17.652Z,25.80
2023-05-25T15:43:54.723Z,25.90
2023-05-25T15:46:22.179Z,25.60
2023-05-25T15:48:49.462Z,25.00
2023-05-25T15:51:16.716Z,24.70
2023-05-25T15:53:43.931Z,25.20
2023-05-25T15:56:11.372Z,24.60
2023-05-25T15:58:38.671Z,24.80
2023-05-25T16:01:06.182Z,24.50
2023-05-25T16:03:33.467Z,24.30
2023-05-25T16:06:02.169Z,24.40
2023-05-25T16:08:29.438Z,24.70
2023-05-25T16:10:56.682Z,24.70
2023-05-25T16:13:23.864Z,24.40
2023-05-25T16:15:51.148Z,24.00
2023-05-25T16:18:18.420Z,24.50
2023-05-25T16:20:45.768Z,24.10
2023-05-25T16:23:14.761Z,24.40
2023-05-25T16:25:42.222Z,23.70
2023-05-25T16:28:09.504Z,23.90
2023-05-25T16:30:36.728Z,23.90
2023-05-25T16:33:04.031Z,23.70
2023-05-25T16:35:31.361Z,23.80
2023-05-25T16:37:58.586Z,23.50
2023-05-25T16:40:26.148Z,23.80
2023-05-25T16:42:53.387Z,23.80
2023-05-25T16:45:21.016Z,23.50
2023-05-25T16:47:48.262Z,23.90
2023-05-25T16:50:15.629Z,24.20
2023-05-25T16:52:42.846Z,23.70
2023-05-25T16:55:10.314Z,23.80
2023-05-25T16:57:37.559Z,23.60
2023-05-25T17:00:05.320Z,23.40
2023-05-25T17:02:32.611Z,23.80
2023-05-25T17:05:00.040Z,23.90
2023-05-25T17:07:27.290Z,23.60
2023-05-25T17:09:54.529Z,23.70
2023-05-25T17:12:21.784Z,23.90
2023-05-25T17:14:48.993Z,23.30
2023-05-25T17:17:16.468Z,23.00
2023-05-25T17:19:43.699Z,22.80
2023-05-25T17:22:11.015Z,23.20
2023-05-25T17:24:38.290Z,23.00
2023-05-25T17:27:05.700Z,23.10
2023-05-25T17:29:33.099Z,23.50
2023-05-25T17:32:00.629Z,23.50
2023-05-25T17:34:27.921Z,23.70
2023-05-25T17:36:55.128Z,23.40
2023-05-25T17:39:22.413Z,23.30
2023-05-25T17:41:50.247Z,23.50
2023-05-25T17:44:17.732Z,23.00
2023-05-25T17:46:44.959Z,23.20
2023-05-25T17:49:12.194Z,23.00
2023-05-25T17:51:39.602Z,23.30
2023-05-25T17:54:06.847Z,23.30
2023-05-25T17:56:34.503Z,23.30
2023-05-25T17:59:01.761Z,23.30
2023-05-25T18:01:29.195Z,23.10
2023-05-25T18:03:56.614Z,22.90
2023-05-25T18:06:23.884Z,23.00
2023-05-25T18:08:51.648Z,23.10
2023-05-25T18:11:18.889Z,23.10
2023-05-25T18:13:46.131Z,23.10
2023-05-25T18:16:13.509Z,23.20
2023-05-25T18:18:40.789Z,23.00
2023-05-25T18:21:08.034Z,23.10
2023-05-25T18:23:35.320Z,23.20
2023-05-25T18:26:04.463Z,22.90
2023-05-25T18:28:31.766Z,23.10
2023-05-25T18:30:59.023Z,23.00
2023-05-25T18:33:26.274Z,23.00
2023-05-25T18:35:53.490Z,22.80
2023-05-25T18:38:20.705Z,22.90
2023-05-25T18:40:47.973Z,22.80
2023-05-25T18:43:15.604Z,22.60
2023-05-25T18:45:42.929Z,22.70
2023-05-25T18:48:10.440Z,22.80
2023-05-25T18:50:39.309Z,22.70
2023-05-25T18:53:09.796Z,22.40
2023-05-25T18:55:37.730Z,22.60
2023-05-25T18:58:05.167Z,22.50
2023-05-25T19:00:32.479Z,22.40
2023-05-25T19:02:59.897Z,22.60
2023-05-25T19:05:27.261Z,22.60
2023-05-25T19:07:59.173Z,22.80
2023-05-25T19:10:27.127Z,22.80
2023-05-25T19:12:54.740Z,22.80
2023-05-25T19:15:22.061Z,22.50
2023-05-25T19:17:49.377Z,22.40
2023-05-25T19:20:16.997Z,22.20
2023-05-25T19:22:44.444Z,21.90
2023-05-25T19:25:11.681Z,21.80
2023-05-25T19:27:38.995Z,21.90
2023-05-25T19:30:06.984Z,22.00
2023-05-25T19:32:34.234Z,21.70
2023-05-25T19:35:01.480Z,21.30
2023-05-25T19:37:28.777Z,21.00
2023-05-25T19:39:56.031Z,20.80
2023-05-25T19:42:23.254Z,20.60
2023-05-25T19:44:50.494Z,20.20
2023-05-25T19:47:17.718Z,20.00
2023-05-25T19:49:45.078Z,19.90
2023-05-25T19:52:12.309Z,19.90
2023-05-25T19:54:39.546Z,20.10
2023-05-25T19:57:06.925Z,20.30
2023-05-25T19:59:34.244Z,20.30
2023-05-25T20:02:01.495Z,20.30
2023-05-25T20:04:28.703Z,20.30
2023-05-25T20:06:55.996Z,20.30
2023-05-25T20:09:30.720Z,20.00
2023-05-25T20:11:58.888Z,19.80
2023-05-25T20:14:26.433Z,19.70
2023-05-25T20:16:55.749Z,19.80
2023-05-25T20:19:23.356Z,19.70
2023-05-25T20:21:51.016Z,19.70
2023-05-25T20:24:18.580Z,19.70
2023-05-25T20:26:45.826Z,19.60
2023-05-25T20:29:13.055Z,19.60
2023-05-25T20:31:40.579Z,19.70
2023-05-25T20:34:07.891Z,20.10
2023-05-25T20:36:35.084Z,19.70
2023-05-25T20:39:03.251Z,20.00
2023-05-25T20:41:30.672Z,19.80
2023-05-25T20:43:57.948Z,19.40
2023-05-25T20:46:25.996Z,19.50
2023-05-25T20:48:53.559Z,19.40
2023-05-25T20:51:21.780Z,19.50
2023-05-25T20:53:49.124Z,19.90
2023-05-25T20:56:16.443Z,20.10
2023-05-25T20:58:43.675Z,20.20
2023-05-25T21:01:11.194Z,20.30
2023-05-25T21:03:39.199Z,20.30
2023-05-25T21:06:06.736Z,20.40
2023-05-25T21:08:34.133Z,20.40
2023-05-25T21:11:01.362Z,20.60
2023-05-25T21:13:28.592Z,20.50
2023-05-25T21:15:56.391Z,20.50
2023-05-25T21:18:23.642Z,20.50
2023-05-25T21:20:50.920Z,20.60
2023-05-25T21:23:18.108Z,20.70
2023-05-25T21:25:45.775Z,20.40
2023-05-25T21:28:13.226Z,19.90
2023-05-25T21:30:40.630Z,19.90
2023-05-25T21:33:08.002Z,19.90
2023-05-25T21:35:35.245Z,19.80
2023-05-25T21:38:02.465Z,20.30
2023-05-25T21:40:29.715Z,20.30
2023-05-25T21:42:56.942Z,20.00
2023-05-25T21:45:24.319Z,20.20
2023-05-25T21:47:51.592Z,19.90
2023-05-25T21:50:18.895Z,19.70
2023-05-25T21:52:46.255Z,19.80
2023-05-25T21:55:13.487Z,19.90
2023-05-25T21:57:40.752Z,20.00
2023-05-25T22:00:10.824Z,19.50
2023-05-25T22:02:38.203Z,20.00
2023-05-25T22:05:05.867Z,20.00
2023-05-25T22:07:33.136Z,19.80
2023-05-25T22:10:00.454Z,20.00
2023-05-25T22:12:27.755Z,19.80
2023-05-25T22:14:55.016Z,19.90
2023-05-25T22:17:22.358Z,19.90
2023-05-25T22:20:03.361Z,19.90
2023-05-25T22:22:35.105Z,20.00
2023-05-25T22:25:02.422Z,19.90
2023-05-25T22:27:29.693Z,19.70
2023-05-25T22:29:56.882Z,19.90
2023-05-25T22:32:24.172Z,20.00
2023-05-25T22:34:51.453Z,20.00
2023-05-25T22:37:18.750Z,19.70
2023-05-25T22:39:46.033Z,19.80
2023-05-25T22:42:13.293Z,19.80
2023-05-25T22:44:40.528Z,19.80
2023-05-25T22:47:07.951Z,20.00
2023-05-25T22:49:41.279Z,20.00
2023-05-25T22:52:11.608Z,20.00
2023-05-25T22:54:38.856Z,19.90
2023-05-25T22:57:06.719Z,19.80
2023-05-25T22:59:33.920Z,19.70
2023-05-25T23:02:01.203Z,19.90
2023-05-25T23:04:28.569Z,19.90
2023-05-25T23:06:55.825Z,19.90
2023-05-25T23:09:23.039Z,19.90
2023-05-25T23:11:50.542Z,19.80
2023-05-25T23:14:17.753Z,19.90
2023-05-25T23:16:48.493Z,20.00
2023-05-25T23:19:16.678Z,19.80
2023-05-25T23:21:44.151Z,19.70
2023-05-25T23:24:11.410Z,19.20
2023-05-25T23:26:38.646Z,19.30
2023-05-25T23:29:06.019Z,19.70
2023-05-25T23:31:33.400Z,19.50
2023-05-25T23:34:00.674Z,19.20
2023-05-25T23:36:28.078Z,19.30
2023-05-25T23:38:55.778Z,19.40
2023-05-25T23:41:23.094Z,19.50
2023-05-25T23:43:50.346Z,19.50
2023-05-25T23:46:17.632Z,18.90
2023-05-25T23:48:45.590Z,19.10
2023-05-25T23:51:12.934Z,19.40
2023-05-25T23:53:40.268Z,19.30
2023-05-25T23:56:07.900Z,19.30
2023-05-25T23:58:35.753Z,19.10
